Time;durP1;ratioP1;P1;durP2;ratioP2;P2;SDS_P1;SDS_P2;PMS_P1;PMS_P2;Temp;Humidity;BMP_temperature;BMP_pressure;BME280_temperature;BME280_humidity;BME280_pressure;Samples;Min_cycle;Max_cycle;Signal;HPM_P1;HPM_P2
2022/05/29 00:01:14;;;;;;;7.22;1.67;;;;;;;19.18;34.35;101553.50;5035516;28;20025;-64
2022/05/29 00:03:40;;;;;;;3.75;1.08;;;;;;;19.16;34.29;101544.69;5034145;28;20021;-65
2022/05/29 00:06:06;;;;;;;4.13;0.90;;;;;;;19.15;34.16;101548.41;5013324;28;20034;-66
2022/05/29 00:08:33;;;;;;;2.35;0.40;;;;;;;19.12;34.68;101543.31;5032168;28;20067;-65
2022/05/29 00:11:00;;;;;;;4.70;1.00;;;;;;;19.09;35.01;101549.09;5032161;28;20025;-65
2022/05/29 00:13:26;;;;;;;1.48;0.57;;;;;;;19.08;34.68;101546.53;5031898;28;20029;-66
2022/05/29 00:15:51;;;;;;;3.25;0.73;;;;;;;19.06;35.10;101541.28;5032911;28;20033;-66
2022/05/29 00:18:17;;;;;;;2.15;0.73;;;;;;;19.03;34.81;101538.91;5033104;28;20025;-66
2022/05/29 00:20:47;;;;;;;1.27;0.47;;;;;;;19.01;35.40;101537.38;5033174;28;20024;-66
2022/05/29 00:23:12;;;;;;;4.22;0.80;;;;;;;18.98;34.95;101543.97;5033002;28;20025;-65
2022/05/29 00:25:38;;;;;;;3.65;0.80;;;;;;;18.95;35.61;101541.59;5032962;28;20158;-66
2022/05/29 00:28:03;;;;;;;1.23;0.60;;;;;;;18.93;34.80;101543.63;5031278;28;20033;-66
2022/05/29 00:30:29;;;;;;;4.65;0.60;;;;;;;18.92;34.79;101541.06;5033003;28;20025;-65
2022/05/29 00:32:54;;;;;;;4.10;0.73;;;;;;;18.87;35.62;101538.84;5032966;28;20060;-66
2022/05/29 00:35:20;;;;;;;3.38;0.90;;;;;;;18.84;35.52;101541.91;5032688;28;20037;-65
2022/05/29 00:37:47;;;;;;;7.72;1.42;;;;;;;18.84;35.00;101538.34;5032776;28;20104;-65
2022/05/29 00:40:39;;;;;;;2.83;0.82;;;;;;;18.80;35.20;101540.53;5029758;28;20026;-66
2022/05/29 00:43:05;;;;;;;4.35;0.70;;;;;;;18.77;34.79;101543.56;5028534;28;20026;-66
2022/05/29 00:45:44;;;;;;;3.25;0.60;;;;;;;18.73;35.11;101534.06;5032621;28;20456;-66
2022/05/29 00:48:14;;;;;;;2.75;0.75;;;;;;;18.70;35.53;101537.13;5030651;28;20375;-66
2022/05/29 00:50:40;;;;;;;3.50;1.05;;;;;;;18.68;35.43;101530.97;5032620;28;20041;-66
2022/05/29 00:53:06;;;;;;;3.78;1.20;;;;;;;18.64;36.03;101524.19;5031456;28;20103;-65
2022/05/29 00:55:31;;;;;;;2.83;0.90;;;;;;;18.63;34.96;101525.19;5032437;28;20061;-65
2022/05/29 00:58:02;;;;;;;1.60;0.70;;;;;;;18.60;36.27;101520.09;5030398;28;20029;-66
2022/05/29 01:00:30;;;;;;;2.40;0.70;;;;;;;18.57;35.66;101526.72;5027080;28;20025;-66
2022/05/29 01:02:58;;;;;;;5.63;0.77;;;;;;;18.57;36.05;101523.13;5032371;28;20475;-66
2022/05/29 01:05:25;;;;;;;7.35;1.10;;;;;;;18.55;36.22;101515.19;5032011;28;20044;-66
2022/05/29 01:08:00;;;;;;;3.08;0.73;;;;;;;18.53;36.64;101519.94;5031059;28;20554;-65
2022/05/29 01:10:48;;;;;;;2.55;0.65;;;;;;;18.51;36.49;101511.06;5032155;28;20159;-66
2022/05/29 01:13:43;;;;;;;3.17;0.80;;;;;;;18.48;35.97;101521.44;5031956;28;20032;-66
2022/05/29 01:16:20;;;;;;;4.63;0.98;;;;;;;18.45;36.43;101516.28;5031248;28;20052;-66
2022/05/29 01:18:58;;;;;;;5.13;0.70;;;;;;;18.43;36.12;101518.31;5013613;28;20078;-65
2022/05/29 01:21:42;;;;;;;3.63;1.30;;;;;;;18.39;36.13;101506.09;5029441;28;20442;-66
2022/05/29 01:24:29;;;;;;;2.60;0.90;;;;;;;18.35;36.63;101515.56;5032428;28;20446;-66
2022/05/29 01:27:28;;;;;;;3.15;0.98;;;;;;;18.29;36.74;101503.50;5032227;28;20394;-66
2022/05/29 01:30:02;;;;;;;2.40;1.00;;;;;;;18.25;36.43;101504.00;5033390;28;20119;-65
2022/05/29 01:32:36;;;;;;;3.40;0.90;;;;;;;18.24;37.00;101496.84;5033451;28;20055;-65
2022/05/29 01:35:22;;;;;;;2.92;1.05;;;;;;;18.22;36.38;101493.47;5033155;28;20513;-66
2022/05/29 01:37:51;;;;;;;3.83;1.30;;;;;;;18.23;37.51;101492.47;5032318;28;20025;-65
2022/05/29 01:40:39;;;;;;;6.65;1.52;;;;;;;18.22;37.30;101493.47;5032399;28;20036;-65
2022/05/29 01:43:35;;;;;;;2.25;1.63;;;;;;;18.19;36.77;101493.78;5032368;28;20027;-66
2022/05/29 01:46:16;;;;;;;3.20;1.00;;;;;;;18.17;36.08;101493.97;5032350;28;20378;-66
2022/05/29 01:48:52;;;;;;;7.53;1.48;;;;;;;18.15;36.51;101482.41;5032125;28;20108;-65
2022/05/29 01:51:24;;;;;;;1.92;1.05;;;;;;;18.15;37.13;101489.69;5032419;28;20471;-66
2022/05/29 01:53:55;;;;;;;3.92;1.00;;;;;;;18.13;37.83;101480.88;5033457;28;20395;-66
2022/05/29 01:56:25;;;;;;;5.85;1.08;;;;;;;18.10;37.88;101473.91;5034304;28;20018;-66
2022/05/29 01:58:56;;;;;;;5.60;1.45;;;;;;;18.09;37.13;101480.34;5035990;28;20032;-66
2022/05/29 02:01:24;;;;;;;3.45;0.88;;;;;;;18.07;37.57;101481.50;5035882;28;20034;-66
2022/05/29 02:03:51;;;;;;;3.58;0.95;;;;;;;18.06;38.07;101477.97;5035805;28;20037;-66
2022/05/29 02:06:22;;;;;;;6.50;1.20;;;;;;;18.04;38.04;101475.41;5035714;28;20506;-66
2022/05/29 02:09:02;;;;;;;0.85;0.65;;;;;;;18.01;36.89;101473.03;5037127;28;20032;-66
2022/05/29 02:11:28;;;;;;;5.60;1.38;;;;;;;17.99;36.97;101463.34;5035629;28;20017;-66
2022/05/29 02:14:25;;;;;;;4.85;0.80;;;;;;;17.95;36.67;101464.69;5035478;28;20035;-65
2022/05/29 02:17:02;;;;;;;1.10;0.70;;;;;;;17.92;37.29;101471.25;5027508;28;20038;-66
2022/05/29 02:19:33;;;;;;;2.55;0.93;;;;;;;17.89;37.49;101471.63;5036592;28;20022;-66
2022/05/29 02:22:09;;;;;;;3.22;1.40;;;;;;;17.87;37.30;101472.75;5035237;28;20022;-66
2022/05/29 02:24:38;;;;;;;5.82;1.40;;;;;;;17.86;37.69;101476.50;5035342;28;20033;-66
2022/05/29 02:27:08;;;;;;;3.05;0.82;;;;;;;17.83;37.60;101466.84;5035197;28;20025;-66
2022/05/29 02:29:33;;;;;;;6.47;0.85;;;;;;;17.81;37.27;101463.41;5035298;28;20071;-66
2022/05/29 02:32:08;;;;;;;1.20;0.90;;;;;;;17.78;38.31;101469.16;5018753;28;20104;-66
2022/05/29 02:34:56;;;;;;;11.10;1.02;;;;;;;17.77;37.37;101456.63;5036327;28;20022;-66
2022/05/29 02:37:27;;;;;;;4.20;2.03;;;;;;;17.74;37.58;101451.53;5033056;28;20041;-66
2022/05/29 02:39:54;;;;;;;2.17;1.27;;;;;;;17.74;37.63;101453.38;5036252;28;20029;-66
2022/05/29 02:42:29;;;;;;;0.93;0.57;;;;;;;17.72;37.42;101458.13;5034805;28;20017;-66
2022/05/29 02:45:27;;;;;;;3.15;1.25;;;;;;;17.71;38.50;101454.56;5036332;28;20383;-66
2022/05/29 02:48:16;;;;;;;1.08;0.90;;;;;;;17.69;39.01;101453.88;5025755;28;20041;-65
2022/05/29 02:50:53;;;;;;;1.67;0.60;;;;;;;17.68;38.38;101452.16;5035780;28;20471;-66
2022/05/29 02:53:19;;;;;;;5.40;0.85;;;;;;;17.67;37.69;101455.88;5036114;28;20021;-65
2022/05/29 02:55:45;;;;;;;6.57;1.02;;;;;;;17.67;37.73;101450.44;5034786;28;20383;-66
2022/05/29 02:58:18;;;;;;;6.28;1.40;;;;;;;17.66;39.07;101446.06;5036045;28;20025;-65
2022/05/29 03:00:58;;;;;;;3.53;0.90;;;;;;;17.65;39.00;101441.63;5034704;28;20064;-65
2022/05/29 03:03:35;;;;;;;1.60;0.63;;;;;;;17.63;38.92;101449.09;5028016;28;20476;-66
2022/05/29 03:06:07;;;;;;;1.55;0.68;;;;;;;17.63;38.50;101448.22;5035028;28;20120;-66
2022/05/29 03:08:40;;;;;;;3.47;1.02;;;;;;;17.64;38.98;101448.09;5017916;28;20049;-65
2022/05/29 03:11:12;;;;;;;2.85;0.70;;;;;;;17.65;38.47;101441.63;5034238;28;20028;-65
2022/05/29 03:14:07;;;;;;;2.90;0.80;;;;;;;17.63;38.50;101443.66;5034740;28;20428;-66
2022/05/29 03:17:13;;;;;;;6.18;1.02;;;;;;;17.66;38.48;101451.47;5030344;28;20418;-66
2022/05/29 03:20:04;;;;;;;3.70;0.88;;;;;;;17.67;38.26;101444.22;5034032;28;20029;-66
2022/05/29 03:22:35;;;;;;;6.05;1.52;;;;;;;17.68;37.69;101451.31;5035518;28;20040;-66
2022/05/29 03:25:11;;;;;;;6.03;1.33;;;;;;;17.68;39.42;101445.88;5035514;28;20079;-66
2022/05/29 03:27:47;;;;;;;3.47;1.00;;;;;;;17.68;38.18;101444.03;5034053;28;20102;-65
2022/05/29 03:30:13;;;;;;;4.60;1.10;;;;;;;17.68;38.92;101440.47;5030978;28;20360;-65
2022/05/29 03:32:38;;;;;;;5.95;1.15;;;;;;;17.68;38.63;101435.91;5031566;28;20096;-65
2022/05/29 03:35:17;;;;;;;5.07;0.88;;;;;;;17.68;37.97;101435.91;5035067;28;20103;-66
2022/05/29 03:37:43;;;;;;;4.03;0.90;;;;;;;17.68;38.87;101433.19;5035124;28;20030;-65
2022/05/29 03:40:11;;;;;;;9.10;1.30;;;;;;;17.69;38.48;101429.50;5035090;28;20040;-66
2022/05/29 03:42:37;;;;;;;3.83;0.90;;;;;;;17.71;38.40;101429.31;5035123;28;20021;-64
2022/05/29 03:45:02;;;;;;;6.22;1.30;;;;;;;17.72;38.09;101436.44;5034927;28;20017;-66
2022/05/29 03:47:28;;;;;;;5.57;1.25;;;;;;;17.72;39.19;101429.16;5033779;28;20029;-66
2022/05/29 03:49:53;;;;;;;2.78;1.00;;;;;;;17.75;38.92;101430.69;5035038;28;20033;-65
2022/05/29 03:52:19;;;;;;;5.95;1.00;;;;;;;17.78;39.21;101442.06;5034775;28;20025;-66
2022/05/29 03:54:44;;;;;;;4.82;1.17;;;;;;;17.80;38.27;101434.63;5033546;28;20037;-65
2022/05/29 03:57:10;;;;;;;9.90;1.65;;;;;;;17.82;38.25;101432.59;5034822;28;20108;-65
2022/05/29 03:59:35;;;;;;;5.65;0.80;;;;;;;17.84;38.19;101433.28;5034658;28;20025;-66
2022/05/29 04:02:00;;;;;;;6.55;0.80;;;;;;;17.83;38.84;101420.75;5035190;28;20021;-66
2022/05/29 04:04:26;;;;;;;3.90;0.98;;;;;;;17.86;39.47;101416.88;5034222;28;20034;-66
2022/05/29 04:06:51;;;;;;;3.40;1.02;;;;;;;17.85;38.47;101421.44;5034130;28;20057;-65
2022/05/29 04:12:07;;;;;;;4.25;1.73;;;;;;;17.86;39.96;101431.28;5034430;28;20553;-65
2022/05/29 04:14:39;;;;;;;2.13;0.88;;;;;;;17.86;40.13;101417.72;5033109;28;20040;-65
2022/05/29 04:17:04;;;;;;;4.63;1.08;;;;;;;17.87;39.31;101416.69;5034562;28;20033;-66
2022/05/29 04:19:30;;;;;;;4.13;0.88;;;;;;;17.88;38.84;101415.69;5033731;28;20509;-66
2022/05/29 04:21:55;;;;;;;4.78;1.42;;;;;;;17.88;39.06;101407.56;5034635;28;20025;-66
2022/05/29 04:24:21;;;;;;;2.88;0.90;;;;;;;17.91;39.54;101414.53;5034230;28;20029;-66
2022/05/29 04:26:48;;;;;;;5.80;1.20;;;;;;;17.93;39.70;101413.34;5034799;28;20025;-66
2022/05/29 04:29:14;;;;;;;5.28;1.23;;;;;;;17.95;39.51;101408.59;5033369;28;20495;-66
2022/05/29 04:32:59;;;;;;;7.32;1.45;;;;;;;17.96;40.26;101404.88;5034206;28;20036;-65
2022/05/29 04:34:24;;;;;;;1.77;0.98;;;;;;;17.99;38.58;101406.41;5033853;28;20029;-65
2022/05/29 04:36:49;;;;;;;2.55;1.15;;;;;;;18.04;39.46;101409.47;5034383;28;20026;-66
2022/05/29 04:39:15;;;;;;;2.45;1.05;;;;;;;18.07;39.22;101402.88;5033922;28;20021;-66
2022/05/29 04:41:41;;;;;;;6.03;1.23;;;;;;;18.12;38.99;101411.41;5034327;28;20108;-65
2022/05/29 04:44:06;;;;;;;3.08;1.33;;;;;;;18.15;39.47;101401.06;5034027;28;20112;-66
2022/05/29 04:46:31;;;;;;;4.93;1.30;;;;;;;18.18;39.28;101394.44;5033909;28;20458;-66
2022/05/29 04:48:57;;;;;;;1.42;0.80;;;;;;;18.22;39.69;101395.84;5033737;28;20040;-65
2022/05/29 04:51:22;;;;;;;5.40;1.55;;;;;;;18.26;39.84;101397.19;5033721;28;20028;-66
2022/05/29 04:53:47;;;;;;;2.92;1.17;;;;;;;18.28;39.54;101400.59;5033738;28;20034;-66
2022/05/29 04:56:13;;;;;;;6.22;1.30;;;;;;;18.31;39.44;101397.56;5033627;28;20029;-66
2022/05/29 04:58:38;;;;;;;4.63;1.40;;;;;;;18.34;39.67;101389.09;5034229;28;20026;-66
2022/05/29 05:01:03;;;;;;;3.47;1.13;;;;;;;18.37;38.51;101399.63;5034149;28;20406;-66
2022/05/29 05:03:29;;;;;;;4.45;1.20;;;;;;;18.39;39.22;101392.16;5028063;28;20048;-65
2022/05/29 05:05:55;;;;;;;15.80;2.22;;;;;;;18.41;38.65;101387.41;5028950;28;20046;-66
2022/05/29 05:08:20;;;;;;;7.43;1.73;;;;;;;18.44;38.94;101387.94;5014303;28;20022;-66
2022/05/29 05:10:46;;;;;;;3.15;0.90;;;;;;;18.47;39.40;101384.88;5014286;28;20029;-66
2022/05/29 05:13:12;;;;;;;7.90;1.40;;;;;;;18.53;38.88;101376.13;5014284;28;20026;-66
2022/05/29 05:15:37;;;;;;;6.13;1.30;;;;;;;18.59;38.74;101380.03;5013923;28;20030;-65
2022/05/29 05:18:03;;;;;;;6.95;1.17;;;;;;;18.65;39.71;101373.06;5014237;28;20491;-66
2022/05/29 05:20:30;;;;;;;6.10;1.52;;;;;;;18.70;38.61;101373.41;5014063;28;20029;-66
2022/05/29 05:22:56;;;;;;;4.93;1.35;;;;;;;18.75;39.71;101381.91;5014120;28;20475;-66
2022/05/29 05:25:21;;;;;;;6.97;1.23;;;;;;;18.78;39.68;101374.28;5013483;28;20022;-66
2022/05/29 05:27:47;;;;;;;6.60;1.50;;;;;;;18.81;39.35;101373.94;5013786;28;20029;-65
2022/05/29 05:30:12;;;;;;;4.53;1.20;;;;;;;18.85;39.18;101366.28;5016011;28;20025;-66
2022/05/29 05:32:38;;;;;;;6.32;1.40;;;;;;;18.86;39.08;101374.28;5017755;28;20052;-66
2022/05/29 05:35:06;;;;;;;3.55;1.33;;;;;;;18.87;39.07;101370.53;5018073;28;20383;-66
2022/05/29 05:37:34;;;;;;;2.03;1.13;;;;;;;18.88;38.96;101371.38;5017814;28;20495;-65
2022/05/29 05:40:00;;;;;;;4.50;1.00;;;;;;;18.89;39.39;101371.22;5017986;28;20447;-66
2022/05/29 05:42:25;;;;;;;10.00;1.30;;;;;;;18.94;38.98;101376.97;5017454;28;20049;-65
2022/05/29 05:44:50;;;;;;;5.40;0.95;;;;;;;18.94;39.11;101374.28;5017657;28;20064;-66
2022/05/29 05:47:19;;;;;;;3.03;1.13;;;;;;;18.96;39.44;101374.09;5016328;28;20026;-66
2022/05/29 05:49:45;;;;;;;10.82;3.17;;;;;;;18.93;38.89;101369.84;5017693;28;20029;-66
2022/05/29 05:52:10;;;;;;;3.40;0.95;;;;;;;18.92;39.80;101379.03;5017456;28;20025;-65
2022/05/29 05:54:35;;;;;;;7.82;1.50;;;;;;;18.92;40.22;101370.88;5017203;28;20026;-66
2022/05/29 05:57:02;;;;;;;5.35;1.40;;;;;;;18.93;40.10;101372.56;5017263;28;20021;-65
2022/05/29 05:59:28;;;;;;;3.65;1.02;;;;;;;18.96;39.64;101380.38;5017471;28;20025;-66
2022/05/29 06:01:53;;;;;;;4.90;1.48;;;;;;;18.99;39.68;101380.03;5017349;28;20034;-66
2022/05/29 06:04:18;;;;;;;2.85;0.98;;;;;;;19.03;39.70;101375.97;5017361;28;20434;-66
2022/05/29 06:06:44;;;;;;;4.60;1.08;;;;;;;19.06;39.88;101381.06;5017202;28;20045;-66
2022/05/29 06:09:09;;;;;;;4.50;1.73;;;;;;;19.09;39.80;101379.88;5017337;28;20403;-65
2022/05/29 06:11:39;;;;;;;7.50;1.67;;;;;;;19.11;39.74;101385.97;5017101;28;20030;-66
2022/05/29 06:14:05;;;;;;;6.07;1.58;;;;;;;19.13;39.66;101386.63;5017063;28;20029;-66
2022/05/29 06:16:30;;;;;;;6.35;1.70;;;;;;;19.12;39.68;101391.22;5016917;28;20026;-66
2022/05/29 06:18:56;;;;;;;12.38;1.33;;;;;;;19.14;39.85;101391.06;5017096;28;20036;-66
2022/05/29 06:21:21;;;;;;;7.28;1.20;;;;;;;19.14;40.31;101378.34;5016970;28;20026;-66
2022/05/29 06:23:47;;;;;;;4.28;1.23;;;;;;;19.19;40.02;101384.09;5032073;28;20018;-66
2022/05/29 06:26:12;;;;;;;6.43;1.20;;;;;;;19.25;39.74;101379.84;5016639;28;20483;-66
2022/05/29 06:28:38;;;;;;;5.35;1.13;;;;;;;19.29;39.31;101383.06;5016677;28;20032;-66
2022/05/29 06:31:05;;;;;;;3.80;1.30;;;;;;;19.31;40.43;101381.03;5016768;28;20022;-66
2022/05/29 06:33:30;;;;;;;5.00;1.35;;;;;;;19.33;40.07;101387.13;5016980;28;20030;-65
2022/05/29 06:36:08;;;;;;;7.63;1.38;;;;;;;19.30;39.93;101384.75;5016759;28;20109;-66
2022/05/29 06:38:33;;;;;;;5.50;1.20;;;;;;;19.29;39.57;101380.34;5016680;28;20022;-66
2022/05/29 06:40:59;;;;;;;9.18;2.92;;;;;;;19.27;39.89;101382.38;5015280;28;20033;-66
2022/05/29 06:43:24;;;;;;;4.75;1.33;;;;;;;19.26;40.38;101386.13;5016650;28;20028;-66
2022/05/29 06:45:58;;;;;;;5.43;1.08;;;;;;;19.25;40.15;101381.72;5016442;28;20109;-66
2022/05/29 06:48:24;;;;;;;11.50;1.13;;;;;;;19.24;40.64;101386.28;5016247;28;20405;-66
2022/05/29 06:50:49;;;;;;;4.05;1.60;;;;;;;19.23;40.83;101383.75;5016316;28;20030;-66
2022/05/29 06:53:15;;;;;;;5.43;1.08;;;;;;;19.19;40.22;101375.94;5016461;28;20021;-65
2022/05/29 06:55:40;;;;;;;6.03;1.30;;;;;;;19.23;40.33;101376.47;5015484;28;20547;-66
2022/05/29 06:58:06;;;;;;;4.82;1.13;;;;;;;19.24;40.22;101377.28;5015284;28;20439;-66
2022/05/29 07:08:44;;;;;;;5.00;1.63;;;;;;;19.30;40.96;101382.88;5016288;28;20048;-66
2022/05/29 07:11:22;;;;;;;3.97;1.38;;;;;;;19.36;41.01;101379.50;5014699;28;20042;-65
2022/05/29 07:13:47;;;;;;;7.07;1.10;;;;;;;19.46;40.99;101382.03;5015008;28;20502;-66
2022/05/29 07:16:15;;;;;;;3.67;1.35;;;;;;;19.63;40.22;101389.97;5016051;28;20026;-66
2022/05/29 07:18:40;;;;;;;3.38;1.60;;;;;;;19.86;40.32;101386.50;5016143;28;20030;-67
2022/05/29 07:21:06;;;;;;;4.28;1.55;;;;;;;20.10;40.07;101379.09;5016038;28;20100;-66
2022/05/29 07:23:32;;;;;;;3.05;1.10;;;;;;;20.33;39.96;101388.19;5016189;28;20364;-66
2022/05/29 07:25:58;;;;;;;2.10;1.25;;;;;;;20.56;39.85;101377.34;5014318;28;20018;-66
2022/05/29 07:28:23;;;;;;;2.65;1.02;;;;;;;20.72;39.67;101381.81;5014163;28;20033;-67
2022/05/29 07:30:50;;;;;;;3.30;0.90;;;;;;;20.89;39.69;101377.94;5015635;28;20037;-67
2022/05/29 07:33:15;;;;;;;4.63;1.00;;;;;;;21.08;39.82;101376.63;5015479;28;20030;-66
2022/05/29 07:35:41;;;;;;;4.35;1.33;;;;;;;21.20;39.23;101370.53;5014132;28;20365;-66
2022/05/29 07:38:06;;;;;;;2.63;1.00;;;;;;;21.38;39.52;101383.81;5015641;28;20101;-66
2022/05/29 07:40:32;;;;;;;5.05;1.48;;;;;;;21.65;39.11;101380.47;5015207;28;20026;-66
2022/05/29 07:45:41;;;;;;;6.68;1.15;;;;;;;22.35;39.03;101363.56;5015556;28;20089;-66
2022/05/29 07:48:08;;;;;;;3.97;1.08;;;;;;;22.46;37.93;101358.44;5015117;28;20033;-66
2022/05/29 07:50:33;;;;;;;5.90;0.90;;;;;;;22.55;38.24;101360.00;5015204;28;20045;-66
2022/05/29 07:52:59;;;;;;;5.10;1.42;;;;;;;22.59;38.48;101361.31;5015391;28;20022;-66
2022/05/29 07:55:25;;;;;;;1.42;1.00;;;;;;;22.71;38.46;101366.28;5015224;28;20061;-67
2022/05/29 07:57:50;;;;;;;5.88;1.20;;;;;;;22.77;37.48;101360.03;5015244;28;20387;-67
2022/05/29 08:00:18;;;;;;;1.65;0.60;;;;;;;22.80;38.10;101370.56;5014862;28;20059;-67
2022/05/29 08:02:44;;;;;;;4.65;0.80;;;;;;;22.91;37.61;101367.31;5014862;28;20037;-66
2022/05/29 08:05:11;;;;;;;3.88;0.88;;;;;;;22.91;37.89;101365.44;5015157;28;20041;-67
2022/05/29 08:07:37;;;;;;;1.05;0.70;;;;;;;22.91;37.25;101364.59;5013442;28;20451;-66
2022/05/29 08:10:03;;;;;;;5.85;1.08;;;;;;;22.92;37.96;101372.56;5014765;28;20037;-67
2022/05/29 08:12:28;;;;;;;0.85;0.60;;;;;;;22.96;36.98;101360.22;5014765;28;20069;-66
2022/05/29 08:14:54;;;;;;;2.22;0.57;;;;;;;22.95;38.00;101357.66;5021130;28;20029;-66
2022/05/29 08:17:19;;;;;;;2.33;0.73;;;;;;;22.92;36.82;101366.28;5034391;28;20029;-66
2022/05/29 08:19:45;;;;;;;1.48;0.80;;;;;;;22.82;37.34;101363.88;5034436;28;20067;-66
2022/05/29 08:22:10;;;;;;;2.65;0.70;;;;;;;22.75;37.00;101362.97;5034226;28;20022;-66
2022/05/29 08:32:56;;;;;;;1.58;0.90;;;;;;;22.73;37.37;101364.19;5033859;28;20079;-67
2022/05/29 08:35:21;;;;;;;2.05;0.80;;;;;;;22.77;36.49;101360.03;5032946;28;20021;-66
2022/05/29 08:37:46;;;;;;;3.33;0.60;;;;;;;22.89;37.17;101353.84;5034262;28;20091;-66
2022/05/29 08:40:12;;;;;;;2.97;0.77;;;;;;;23.09;36.23;101359.47;5034008;28;20108;-66
2022/05/29 08:42:40;;;;;;;1.42;0.80;;;;;;;23.26;36.92;101362.75;5032774;28;20475;-66
2022/05/29 08:45:06;;;;;;;7.07;1.00;;;;;;;23.36;36.04;101358.66;5032833;28;20021;-66
2022/05/29 08:47:33;;;;;;;1.95;0.82;;;;;;;23.47;36.40;101357.28;5032848;28;20047;-66
2022/05/29 08:49:58;;;;;;;1.80;0.52;;;;;;;23.61;35.95;101362.66;5033986;28;20026;-66
2022/05/29 08:52:28;;;;;;;2.47;0.80;;;;;;;23.62;35.50;101355.25;5032674;28;20063;-66
2022/05/29 08:55:12;;;;;;;2.67;0.50;;;;;;;23.55;35.37;101355.25;5032503;28;20079;-66
2022/05/29 08:57:59;;;;;;;4.68;0.82;;;;;;;23.41;35.59;101348.00;5033928;28;20376;-66
2022/05/29 09:01:06;;;;;;;1.08;0.75;;;;;;;23.24;36.53;101343.84;5033873;28;20029;-66
2022/05/29 09:03:38;;;;;;;2.88;0.52;;;;;;;23.23;36.61;101350.34;5033288;28;20124;-66
2022/05/29 09:06:08;;;;;;;2.08;0.82;;;;;;;23.22;36.12;101348.66;5033236;28;20116;-66
2022/05/29 09:08:37;;;;;;;0.93;0.45;;;;;;;23.31;36.22;101347.44;5033619;28;20028;-66
2022/05/29 09:11:09;;;;;;;1.52;0.80;;;;;;;23.59;35.38;101345.56;5032453;28;20079;-66
2022/05/29 09:13:39;;;;;;;2.20;0.75;;;;;;;23.96;35.04;101340.69;5033750;28;20363;-66
2022/05/29 09:16:09;;;;;;;2.85;0.82;;;;;;;24.08;35.56;101341.81;5033678;28;20045;-66
2022/05/29 09:18:40;;;;;;;1.98;0.73;;;;;;;24.11;35.06;101333.22;5032265;28;20037;-66
2022/05/29 09:21:11;;;;;;;1.65;0.50;;;;;;;24.17;35.28;101327.78;5033828;28;20061;-66
2022/05/29 09:24:08;;;;;;;3.65;0.65;;;;;;;24.22;34.80;101324.41;5033807;28;20026;-66
2022/05/29 09:26:37;;;;;;;3.80;0.80;;;;;;;24.31;35.13;101317.72;5031351;28;20037;-66
2022/05/29 09:29:03;;;;;;;2.85;0.65;;;;;;;24.38;34.44;101312.22;5033457;28;20029;-65
2022/05/29 09:31:30;;;;;;;2.30;0.85;;;;;;;24.47;34.59;101321.94;5033878;28;20147;-66
2022/05/29 09:33:55;;;;;;;0.88;0.52;;;;;;;24.81;34.23;101319.09;5032885;28;20021;-66
2022/05/29 09:36:42;;;;;;;2.13;0.65;;;;;;;25.30;33.62;101313.13;5033677;28;20032;-66
2022/05/29 09:39:27;;;;;;;0.47;0.40;;;;;;;25.67;32.99;101312.44;5032027;28;20025;-66
2022/05/29 09:42:00;;;;;;;4.25;0.73;;;;;;;26.33;32.63;101303.91;5033188;28;20025;-66
2022/05/29 09:44:27;;;;;;;2.38;0.63;;;;;;;26.44;32.66;101305.97;5033211;28;20025;-66
2022/05/29 09:46:53;;;;;;;1.95;0.55;;;;;;;26.51;32.56;101302.13;5033403;28;20034;-66
2022/05/29 09:49:41;;;;;;;1.95;0.30;;;;;;;26.59;31.94;101298.25;5033193;28;20390;-66
2022/05/29 09:52:08;;;;;;;1.75;0.40;;;;;;;26.77;31.98;101301.09;5032995;28;20053;-66
2022/05/29 09:54:37;;;;;;;0.98;0.35;;;;;;;27.46;31.20;101297.31;5032980;28;20401;-66
2022/05/29 09:57:20;;;;;;;0.68;0.50;;;;;;;27.80;30.20;101290.34;5032952;28;20025;-66
2022/05/29 09:59:46;;;;;;;2.25;1.10;;;;;;;28.38;30.25;101285.13;5032029;28;20021;-66
2022/05/29 10:02:24;;;;;;;48.22;46.08;;;;;;;29.23;29.65;101287.34;5033590;28;20056;-66
2022/05/29 10:04:52;;;;;;;42.65;40.47;;;;;;;29.98;29.56;101290.13;5031877;28;20040;-66
2022/05/29 10:07:27;;;;;;;8.68;8.30;;;;;;;30.11;28.53;101276.00;5031515;28;20140;-66
2022/05/29 10:10:02;;;;;;;1.33;0.93;;;;;;;31.78;27.10;101262.13;5033040;28;20026;-66
2022/05/29 10:12:44;;;;;;;3.35;0.88;;;;;;;33.23;26.18;101264.69;5032834;28;20036;-66
2022/05/29 10:15:14;;;;;;;2.33;0.80;;;;;;;33.46;26.11;101267.06;5033096;28;20036;-67
2022/05/29 10:17:40;;;;;;;0.77;0.73;;;;;;;33.43;26.07;101273.16;5035472;28;20083;-66
2022/05/29 10:20:29;;;;;;;0.90;0.60;;;;;;;32.64;26.50;101262.00;5036460;28;20025;-66
2022/05/29 10:22:55;;;;;;;2.75;0.57;;;;;;;31.72;27.22;101258.47;5036512;28;20021;-67
2022/05/29 10:25:26;;;;;;;3.15;0.57;;;;;;;31.05;27.25;101261.38;5034941;28;20021;-66
2022/05/29 10:27:54;;;;;;;1.95;0.47;;;;;;;30.39;27.82;101259.44;5036350;28;20479;-67
2022/05/29 10:30:31;;;;;;;1.80;0.40;;;;;;;29.76;27.95;101261.47;5035425;28;20060;-66
2022/05/29 10:33:07;;;;;;;3.63;0.30;;;;;;;29.14;28.09;101260.31;5035612;28;20032;-66
2022/05/29 10:35:34;;;;;;;1.70;0.43;;;;;;;28.59;28.49;101268.88;5035307;28;20042;-67
2022/05/29 10:38:18;;;;;;;0.98;0.30;;;;;;;28.04;28.32;101265.47;5035269;28;20112;-67
2022/05/29 10:40:45;;;;;;;1.27;0.65;;;;;;;27.55;28.35;101265.66;5036041;28;20032;-66
2022/05/29 10:43:10;;;;;;;1.58;0.80;;;;;;;27.16;29.24;101266.91;5036231;28;20037;-66
2022/05/29 10:45:44;;;;;;;2.97;0.80;;;;;;;26.81;30.31;101274.00;5036013;28;20120;-66
2022/05/29 10:48:22;;;;;;;2.33;0.90;;;;;;;26.49;29.95;101281.44;5034681;28;20033;-67
2022/05/29 10:51:15;;;;;;;1.05;0.40;;;;;;;26.13;30.18;101276.53;5036241;28;20034;-66
2022/05/29 10:53:50;;;;;;;2.17;1.25;;;;;;;25.79;30.46;101280.53;5036181;28;20032;-66
2022/05/29 10:56:39;;;;;;;0.63;0.50;;;;;;;25.55;30.88;101278.50;5035925;28;20076;-66
2022/05/29 10:59:16;;;;;;;3.67;0.90;;;;;;;25.31;30.90;101287.41;5034944;28;20116;-66
2022/05/29 11:05:13;;;;;;;9.98;2.55;;;;;;;24.91;31.07;101286.59;5035767;28;20044;-66
2022/05/29 11:07:57;;;;;;;3.05;0.77;;;;;;;24.79;31.94;101283.66;5028191;28;20523;-66
2022/05/29 11:10:31;;;;;;;2.08;0.60;;;;;;;24.70;31.43;101284.06;5035737;28;20026;-66
2022/05/29 11:13:05;;;;;;;2.50;0.60;;;;;;;24.54;31.52;101279.81;5035608;28;20028;-67
2022/05/29 11:15:34;;;;;;;4.45;0.90;;;;;;;24.38;32.43;101274.72;5035746;28;20378;-67
2022/05/29 11:18:05;;;;;;;1.52;0.93;;;;;;;24.25;32.42;101269.25;5035633;28;20026;-67
2022/05/29 11:20:49;;;;;;;2.33;0.60;;;;;;;24.19;32.76;101265.44;5035596;28;20033;-67
2022/05/29 11:23:33;;;;;;;3.72;0.50;;;;;;;24.23;32.46;101258.47;5035499;28;20036;-65
2022/05/29 11:26:35;;;;;;;1.45;0.95;;;;;;;24.37;32.73;101253.03;5035496;28;20079;-67
2022/05/29 11:29:02;;;;;;;2.30;1.10;;;;;;;24.72;32.48;101249.06;5015496;28;20069;-67
2022/05/29 11:31:50;;;;;;;1.67;0.88;;;;;;;25.25;32.07;101242.47;5017548;28;20061;-66
2022/05/29 11:34:30;;;;;;;3.28;1.20;;;;;;;26.43;31.41;101228.19;5035168;28;20479;-67
2022/05/29 11:37:04;;;;;;;4.30;1.05;;;;;;;27.29;30.70;101227.41;5034944;28;20083;-67
2022/05/29 11:39:54;;;;;;;3.40;0.63;;;;;;;27.85;29.41;101216.97;5033750;28;20497;-66
2022/05/29 11:42:27;;;;;;;1.15;0.57;;;;;;;28.46;29.76;101218.63;5033797;28;20387;-67
2022/05/29 11:51:27;;;;;;;3.03;1.17;;;;;;;29.27;29.37;101207.66;4993217;28;20124;-67
2022/05/29 11:54:04;;;;;;;2.85;0.50;;;;;;;28.71;29.80;101200.81;4993265;28;20042;-67
2022/05/29 11:57:09;;;;;;;3.42;0.90;;;;;;;28.30;29.85;101203.63;4993151;28;20614;-66
2022/05/29 11:59:50;;;;;;;1.02;0.50;;;;;;;27.99;29.14;101196.44;4993273;28;20073;-67
2022/05/29 12:02:25;;;;;;;4.07;0.77;;;;;;;28.21;28.91;101189.34;4976839;28;20026;-66
2022/05/29 12:04:59;;;;;;;6.40;0.98;;;;;;;28.48;28.80;101186.97;4993208;28;20432;-66
2022/05/29 12:07:33;;;;;;;5.40;0.90;;;;;;;28.65;29.05;101189.91;4976789;28;20093;-67
2022/05/29 12:10:09;;;;;;;2.88;0.70;;;;;;;29.70;27.94;101183.19;4977109;28;20034;-67
2022/05/29 12:12:44;;;;;;;1.42;0.60;;;;;;;29.92;27.62;101175.91;4993267;28;20048;-67
2022/05/29 12:15:15;;;;;;;2.40;0.80;;;;;;;30.15;28.11;101163.03;4992871;28;20062;-67